createdAt,value
2016-04-20T08:27:45.610Z,49.1
2016-04-20T08:28:45.581Z,49.19
2016-04-20T08:29:45.583Z,49.19
2016-04-20T08:30:45.368Z,49.1
2016-04-20T08:31:45.371Z,49.19
2016-04-20T08:32:45.357Z,49.19
2016-04-20T08:33:45.454Z,49.29
2016-04-20T08:34:45.691Z,49.29
2016-04-20T08:35:45.381Z,49.29
2016-04-20T08:36:45.555Z,49.19
2016-04-20T08:37:45.543Z,49.38
2016-04-20T08:38:45.342Z,49.19
2016-04-20T08:39:45.532Z,49.1
2016-04-20T08:40:45.535Z,49.29
2016-04-20T08:41:45.319Z,49.29
2016-04-20T08:42:45.525Z,49.29
2016-04-20T08:43:45.121Z,49.38
2016-04-20T08:44:45.312Z,49.29
2016-04-20T08:45:45.299Z,49.1
2016-04-20T08:46:45.301Z,49.29
2016-04-20T08:47:45.101Z,49.38
2016-04-20T08:48:45.510Z,49.38
2016-04-20T08:49:45.451Z,49.19
2016-04-20T08:50:45.515Z,49.38
2016-04-20T08:51:45.487Z,49.38
2016-04-20T08:52:45.489Z,49.29
2016-04-20T08:53:45.070Z,49.38
2016-04-20T08:54:45.276Z,49.38
2016-04-20T08:55:45.481Z,49.29
2016-04-20T08:56:45.266Z,49.29
2016-04-20T08:57:45.252Z,49.29
2016-04-20T08:58:45.490Z,49.29
2016-04-20T08:59:45.242Z,49.38
2016-04-20T09:00:45.245Z,49.57
2016-04-20T09:01:45.233Z,49.38
2016-04-20T09:02:45.235Z,49.38
2016-04-20T09:03:45.238Z,49.38
2016-04-20T09:04:45.521Z,49.38
2016-04-20T09:05:45.430Z,49.38
2016-04-20T09:06:45.432Z,49.38
2016-04-20T09:07:45.014Z,49.29
2016-04-20T09:08:45.220Z,49.38
2016-04-20T09:09:45.223Z,49.38
2016-04-20T09:10:45.413Z,49.48
2016-04-20T09:11:45.416Z,49.48
2016-04-20T09:12:45.199Z,49.48
2016-04-20T09:13:45.187Z,49.38
2016-04-20T09:14:45.393Z,49.38
2016-04-20T09:15:45.395Z,49.48
2016-04-20T09:16:45.382Z,49.48
2016-04-20T09:17:45.181Z,49.57
2016-04-20T09:18:45.184Z,49.76
2016-04-20T09:19:45.562Z,49.76
2016-04-20T09:20:45.159Z,49.67
2016-04-20T09:21:45.161Z,49.67
2016-04-20T09:22:45.163Z,49.67
2016-04-20T09:23:45.150Z,49.67
2016-04-20T09:24:45.356Z,49.67
2016-04-20T09:25:45.155Z,49.67
2016-04-20T09:26:44.939Z,49.57
2016-04-20T09:27:45.145Z,49.57
2016-04-20T09:28:45.960Z,49.57
2016-04-20T09:29:45.135Z,49.67
2016-04-20T09:30:45.341Z,49.76
2016-04-20T09:31:45.124Z,49.76
2016-04-20T09:32:45.330Z,49.86
2016-04-20T09:33:45.317Z,49.67
2016-04-20T09:34:45.117Z,49.76
2016-04-20T09:35:44.917Z,49.76
2016-04-20T09:36:45.106Z,49.76
2016-04-20T09:37:45.312Z,49.76
2016-04-20T09:38:45.095Z,49.76
2016-04-20T09:39:45.099Z,49.67
2016-04-20T09:40:45.086Z,49.86
2016-04-20T09:41:45.089Z,49.67
2016-04-20T09:42:45.295Z,49.76
2016-04-20T09:43:45.078Z,49.57
2016-04-20T09:44:45.269Z,49.67
2016-04-20T09:45:45.271Z,49.76
2016-04-20T09:46:45.071Z,49.67
2016-04-20T09:47:45.261Z,49.86
2016-04-20T09:48:45.045Z,49.76
2016-04-20T09:49:44.845Z,49.76
2016-04-20T09:50:45.253Z,49.86
2016-04-20T09:51:45.256Z,49.76
2016-04-20T09:52:45.040Z,50.05
2016-04-20T09:53:45.043Z,49.96
2016-04-20T09:54:45.046Z,49.96
2016-04-20T09:55:45.236Z,49.96
2016-04-20T09:56:45.019Z,50.05
2016-04-20T09:57:45.226Z,49.96
2016-04-20T09:58:45.213Z,49.96
2016-04-20T09:59:45.012Z,49.86
2016-04-20T10:00:45.015Z,50.05
2016-04-20T10:01:45.001Z,49.96
2016-04-20T10:02:45.004Z,49.96
2016-04-20T10:03:45.195Z,49.76
2016-04-20T10:04:45.212Z,49.86
2016-04-20T10:05:44.997Z,49.67
2016-04-20T10:06:45.000Z,49.76
2016-04-20T10:07:45.189Z,49.86
2016-04-20T10:08:44.786Z,49.76
2016-04-20T10:09:44.773Z,49.86
2016-04-20T10:10:44.964Z,49.96
2016-04-20T10:11:44.967Z,49.67
2016-04-20T10:12:45.172Z,49.76
2016-04-20T10:13:44.956Z,49.57
2016-04-20T10:14:44.756Z,49.67
2016-04-20T10:15:45.165Z,49.67
2016-04-20T10:16:44.948Z,49.67
2016-04-20T10:17:44.733Z,49.67
2016-04-20T10:18:45.142Z,49.67
2016-04-20T10:19:45.144Z,49.67
2016-04-20T10:20:44.928Z,49.67
2016-04-20T10:21:44.931Z,49.76
2016-04-20T10:22:44.918Z,49.76
2016-04-20T10:23:44.921Z,49.76
2016-04-20T10:24:44.924Z,49.67
2016-04-20T10:25:44.754Z,49.76
2016-04-20T10:26:44.913Z,49.76
2016-04-20T10:27:44.899Z,49.67
2016-04-20T10:28:44.902Z,49.76
2016-04-20T10:29:44.702Z,49.57
2016-04-20T10:30:45.096Z,49.67
2016-04-20T10:31:44.879Z,49.67
2016-04-20T10:32:44.679Z,49.57
2016-04-20T10:33:44.885Z,49.57
2016-04-20T10:34:45.091Z,49.57
2016-04-20T10:35:45.079Z,49.57
2016-04-20T10:36:45.065Z,49.67
2016-04-20T10:37:45.645Z,49.67
2016-04-20T10:38:44.867Z,49.67
2016-04-20T10:39:44.854Z,49.67
2016-04-20T10:40:44.856Z,49.67
2016-04-20T10:41:44.860Z,49.86
2016-04-20T10:42:44.847Z,49.76
2016-04-20T10:43:44.865Z,49.67
2016-04-20T10:44:44.836Z,49.69
2016-04-20T10:45:45.042Z,49.69
2016-04-20T10:46:45.029Z,49.67
2016-04-20T10:47:45.032Z,49.79
2016-04-20T10:48:45.034Z,49.69
2016-04-20T10:49:44.819Z,49.67
2016-04-20T10:50:45.024Z,49.69
2016-04-20T10:51:44.824Z,49.57
2016-04-20T10:52:44.842Z,49.79
2016-04-20T10:53:44.813Z,49.69
2016-04-20T10:54:44.800Z,49.69
2016-04-20T10:55:44.803Z,49.69
2016-04-20T10:56:44.791Z,49.69
2016-04-20T10:57:44.793Z,49.6
2016-04-20T10:58:44.577Z,49.79
2016-04-20T10:59:44.985Z,49.69
2016-04-20T11:00:44.785Z,49.69
2016-04-20T11:01:44.569Z,49.6
2016-04-20T11:02:44.572Z,49.69
2016-04-20T11:03:44.779Z,49.6
2016-04-20T11:04:44.562Z,49.5
2016-04-20T11:05:44.752Z,49.5
2016-04-20T11:06:44.973Z,49.5
2016-04-20T11:07:44.757Z,49.6
2016-04-20T11:08:44.542Z,49.69
2016-04-20T11:09:44.748Z,49.69
2016-04-20T11:10:44.937Z,49.69
2016-04-20T11:11:44.940Z,49.6
2016-04-20T11:12:44.943Z,49.69
2016-04-20T11:13:44.946Z,49.6
2016-04-20T11:14:44.526Z,49.69
2016-04-20T11:15:44.514Z,49.6
2016-04-20T11:16:44.938Z,49.6
2016-04-20T11:17:44.925Z,49.69
2016-04-20T11:18:44.709Z,49.6
2016-04-20T11:19:44.915Z,49.69
2016-04-20T11:20:44.918Z,49.69
2016-04-20T11:21:44.702Z,49.69
2016-04-20T11:22:44.908Z,49.69
2016-04-20T11:23:44.691Z,49.79
2016-04-20T11:24:44.694Z,49.79
2016-04-20T11:25:44.697Z,49.88
2016-04-20T11:26:44.886Z,49.79
2016-04-20T11:27:44.874Z,49.69
2016-04-20T11:28:44.673Z,49.88
2016-04-20T11:29:44.676Z,49.79
2016-04-20T11:30:44.663Z,49.98
2016-04-20T11:31:45.010Z,49.79
2016-04-20T11:32:44.872Z,49.88
2016-04-20T11:33:44.656Z,50.08
2016-04-20T11:34:44.862Z,49.98
2016-04-20T11:35:44.849Z,49.88
2016-04-20T11:36:44.663Z,49.98
2016-04-20T11:37:44.838Z,50.08
2016-04-20T11:38:44.654Z,49.98
2016-04-20T11:39:44.641Z,49.98
2016-04-20T11:40:44.643Z,49.88
2016-04-20T11:41:44.834Z,49.98
2016-04-20T11:42:44.633Z,49.88
2016-04-20T11:43:44.620Z,50.08
2016-04-20T11:44:44.622Z,49.98
2016-04-20T11:45:44.813Z,49.88
2016-04-20T11:46:44.831Z,49.98
2016-04-20T11:47:44.802Z,50.08
2016-04-20T11:48:44.821Z,50.08
2016-04-20T11:49:44.605Z,49.98
2016-04-20T11:50:44.795Z,50.27
2016-04-20T11:51:44.595Z,50.08
2016-04-20T11:52:44.800Z,50.17
2016-04-20T11:53:44.381Z,50.08
2016-04-20T11:54:44.791Z,50.17
2016-04-20T11:55:44.574Z,50.17
2016-04-20T11:56:44.780Z,50.17
2016-04-20T11:57:44.563Z,50.27
2016-04-20T11:58:44.566Z,50.08
2016-04-20T11:59:44.773Z,50.17
2016-04-20T12:00:44.557Z,50.27
2016-04-20T12:01:44.763Z,50.27
2016-04-20T12:02:44.562Z,50.17
2016-04-20T12:03:44.548Z,50.17
2016-04-20T12:04:44.551Z,50.27
2016-04-20T12:05:44.617Z,50.27
2016-04-20T12:06:44.541Z,50.08
2016-04-20T12:07:44.763Z,50.27
2016-04-20T12:08:44.734Z,50.17
2016-04-20T12:09:44.752Z,50.08
2016-04-20T12:10:44.723Z,50.08
2016-04-20T12:11:44.742Z,49.98
2016-04-20T12:12:44.730Z,50.08
2016-04-20T12:13:44.513Z,49.98
2016-04-20T12:14:44.720Z,50.37
2016-04-20T12:15:44.518Z,50.37
2016-04-20T12:16:44.505Z,50.37
2016-04-20T12:17:44.712Z,50.17
2016-04-20T12:18:44.715Z,50.17
2016-04-20T12:19:44.498Z,50.17
2016-04-20T12:20:44.314Z,49.98
2016-04-20T12:21:44.503Z,50.17
2016-04-20T12:22:44.491Z,49.88
2016-04-20T12:23:44.478Z,49.98
2016-04-20T12:24:44.496Z,50.08
2016-04-20T12:25:44.483Z,50.08
2016-04-20T12:26:44.469Z,50.08
2016-04-20T12:27:44.675Z,50.17
2016-04-20T12:28:44.272Z,50.17
2016-04-20T12:29:44.463Z,50.08
2016-04-20T12:30:44.465Z,50.27
2016-04-20T12:31:44.453Z,50.08
2016-04-20T12:32:44.657Z,50.17
2016-04-20T12:33:44.441Z,50.17
2016-04-20T12:34:44.663Z,49.98
2016-04-20T12:35:44.479Z,50.08
2016-04-20T12:36:44.638Z,50.27
2016-04-20T12:37:44.438Z,50.17
2016-04-20T12:38:44.221Z,50.17
2016-04-20T12:39:44.630Z,50.17
2016-04-20T12:40:44.227Z,49.88
2016-04-20T12:41:44.621Z,49.6
2016-04-20T12:42:44.420Z,49.6
2016-04-20T12:43:44.609Z,49.31
2016-04-20T12:44:44.425Z,49.41
2016-04-20T12:45:44.412Z,49.69
2016-04-20T12:46:44.196Z,49.79
2016-04-20T12:47:44.402Z,49.88
2016-04-20T12:48:44.389Z,50.08
2016-04-20T12:49:44.392Z,49.69
2016-04-20T12:50:44.425Z,49.98
2016-04-20T12:51:44.600Z,49.98
2016-04-20T12:52:44.384Z,49.98
2016-04-20T12:53:44.370Z,49.98
2016-04-20T12:54:44.373Z,49.69
2016-04-20T12:55:44.361Z,49.69
2016-04-20T12:56:44.364Z,50.08
2016-04-20T12:57:44.569Z,50.08
2016-04-20T12:58:44.166Z,49.98
2016-04-20T12:59:44.356Z,49.98
2016-04-20T13:00:44.561Z,49.98
2016-04-20T13:01:44.548Z,49.98
2016-04-20T13:02:44.551Z,50.2
2016-04-20T13:03:44.336Z,50.27
2016-04-20T13:04:44.541Z,50.37
2016-04-20T13:05:44.685Z,50.46
2016-04-20T13:06:44.327Z,50.46
2016-04-20T13:07:44.533Z,50.17
2016-04-20T13:08:44.318Z,49.69
2016-04-20T13:09:44.321Z,49.79
2016-04-20T13:10:44.323Z,49.6
2016-04-20T13:11:44.325Z,49.24
2016-04-20T13:12:44.109Z,49.12
2016-04-20T13:13:44.299Z,49.33
2016-04-20T13:14:44.521Z,49.69
2016-04-20T13:15:44.337Z,50.08
2016-04-20T13:16:44.495Z,49.69
2016-04-20T13:17:44.295Z,49.98
2016-04-20T13:18:44.501Z,50.27
2016-04-20T13:19:44.487Z,50.17
2016-04-20T13:20:44.022Z,50.39
2016-04-20T13:21:44.493Z,50.27
2016-04-20T13:22:44.464Z,50.37
2016-04-20T13:23:44.280Z,50.49
2016-04-20T13:24:44.266Z,50.29
2016-04-20T13:25:44.066Z,50.27
2016-04-20T13:26:44.272Z,50.27
2016-04-20T13:27:44.478Z,50.37
2016-04-20T13:28:44.278Z,50.58
2016-04-20T13:29:44.249Z,50.37
2016-04-20T13:30:44.252Z,50.39
2016-04-20T13:31:44.051Z,50.39
2016-04-20T13:32:44.258Z,50.37
2016-04-20T13:33:44.244Z,50.46
2016-04-20T13:34:44.450Z,50.39
2016-04-20T13:35:44.577Z,50.39
2016-04-20T13:36:44.221Z,50.39
2016-04-20T13:37:44.238Z,50.27
2016-04-20T13:38:44.430Z,50.39
2016-04-20T13:39:44.010Z,50.58
2016-04-20T13:40:44.216Z,51.06
2016-04-20T13:41:44.219Z,50.39
2016-04-20T13:42:44.409Z,50.49
2016-04-20T13:43:44.051Z,50.78
2016-04-20T13:44:44.212Z,50.78
2016-04-20T13:45:44.198Z,50.58
2016-04-20T13:46:44.404Z,50.96
2016-04-20T13:47:44.390Z,50.68
2016-04-20T13:48:44.191Z,50.39
2016-04-20T13:49:43.990Z,50.58
2016-04-20T13:50:44.196Z,50.78
2016-04-20T13:51:43.980Z,50.87
2016-04-20T13:52:43.968Z,51.06
2016-04-20T13:53:44.189Z,50.39
2016-04-20T13:54:43.972Z,50.96
2016-04-20T13:55:44.162Z,50.68
2016-04-20T13:56:44.165Z,50.78
2016-04-20T13:57:43.964Z,50.96
2016-04-20T13:58:44.156Z,50.58
2016-04-20T13:59:44.158Z,50.29
2016-04-20T14:00:43.958Z,50.29
2016-04-20T14:01:44.164Z,50.2
2016-04-20T14:02:43.963Z,50.58
2016-04-20T14:03:43.934Z,50.49
2016-04-20T14:04:44.343Z,50.78
2016-04-20T14:05:44.346Z,50.78
2016-04-20T14:06:44.332Z,50.58
2016-04-20T14:07:44.336Z,50.68
2016-04-20T14:08:44.135Z,50.68
2016-04-20T14:09:43.919Z,50.78
2016-04-20T14:10:43.922Z,50.68
2016-04-20T14:11:44.112Z,50.68
2016-04-20T14:12:43.912Z,50.58
2016-04-20T14:13:44.102Z,50.58
2016-04-20T14:14:44.105Z,50.96
2016-04-20T14:15:43.904Z,50.68
2016-04-20T14:16:44.297Z,50.78
2016-04-20T14:17:44.096Z,50.39
2016-04-20T14:18:43.881Z,50.29
2016-04-20T14:19:44.290Z,50.01
2016-04-20T14:20:44.090Z,50.01
2016-04-20T14:21:44.092Z,50.01
2016-04-20T14:22:44.096Z,50.29
2016-04-20T14:23:44.082Z,50.2
2016-04-20T14:24:44.273Z,50.1
2016-04-20T14:25:44.276Z,50.2
2016-04-20T14:26:43.872Z,50.29
2016-04-20T14:27:44.062Z,50.29
2016-04-20T14:28:44.065Z,50.58
2016-04-20T14:29:44.084Z,50.49
2016-04-20T14:30:44.258Z,50.32
2016-04-20T14:31:43.854Z,50.23
2016-04-20T14:32:44.247Z,50.1
2016-04-20T14:33:43.859Z,50.23
2016-04-20T14:34:44.253Z,50.13
2016-04-20T14:35:44.053Z,50.23
2016-04-20T14:36:44.258Z,50.42
2016-04-20T14:37:44.042Z,50.32
2016-04-20T14:38:44.029Z,50.42
2016-04-20T14:39:44.048Z,50.39
2016-04-20T14:40:44.019Z,50.39
2016-04-20T14:41:44.022Z,50.29
2016-04-20T14:42:43.822Z,50.51
2016-04-20T14:43:43.824Z,50.42
2016-04-20T14:44:44.217Z,50.51
2016-04-20T14:45:44.205Z,50.42
2016-04-20T14:46:44.005Z,50.32
2016-04-20T14:47:44.210Z,50.23
2016-04-20T14:48:44.010Z,50.61
2016-04-20T14:49:44.200Z,50.42
2016-04-20T14:50:44.202Z,50.13
2016-04-20T14:51:44.205Z,50.13
2016-04-20T14:52:44.004Z,50.13
2016-04-20T14:53:44.210Z,50.03
2016-04-20T14:54:43.979Z,49.65
2016-04-20T14:55:44.185Z,49.84
2016-04-20T14:56:44.187Z,49.84
2016-04-20T14:57:43.971Z,50.03
2016-04-20T14:58:44.177Z,50.13
2016-04-20T14:59:44.180Z,50.23
2016-04-20T15:00:43.963Z,50.13
2016-04-20T15:01:44.170Z,50.23
2016-04-20T15:02:43.968Z,50.13
2016-04-20T15:03:43.971Z,50.32
2016-04-20T15:04:43.755Z,50.23
2016-04-20T15:05:43.945Z,50.23
2016-04-20T15:06:43.761Z,50.13
2016-04-20T15:07:43.748Z,50.13
2016-04-20T15:08:43.767Z,50.23
2016-04-20T15:09:44.145Z,50.23
2016-04-20T15:10:44.147Z,50.23
2016-04-20T15:11:44.134Z,50.23
2016-04-20T15:12:43.933Z,50.23
2016-04-20T15:13:44.123Z,50.23
2016-04-20T15:14:43.922Z,50.32
2016-04-20T15:15:43.925Z,50.23
2016-04-20T15:16:44.116Z,50.42
2016-04-20T15:17:43.915Z,50.42
2016-04-20T15:18:43.933Z,50.32
2016-04-20T15:19:43.921Z,50.23
2016-04-20T15:20:44.111Z,50.13
2016-04-20T15:21:44.113Z,50.23
2016-04-20T15:22:43.897Z,50.32
2016-04-20T15:23:43.916Z,50.13
2016-04-20T15:24:43.902Z,49.84
2016-04-20T15:25:43.905Z,49.74
2016-04-20T15:26:43.893Z,49.74
2016-04-20T15:27:44.098Z,49.77
2016-04-20T15:28:43.899Z,49.77
2016-04-20T15:29:44.088Z,49.74
2016-04-20T15:30:44.091Z,49.67
2016-04-20T15:31:43.671Z,49.84
2016-04-20T15:32:43.893Z,50.05
2016-04-20T15:33:44.084Z,49.96
2016-04-20T15:34:43.664Z,50.15
2016-04-20T15:35:43.682Z,50.15
2016-04-20T15:36:44.064Z,49.96
2016-04-20T15:37:43.661Z,49.87
2016-04-20T15:38:43.852Z,49.96
2016-04-20T15:39:43.854Z,50.15
2016-04-20T15:40:44.061Z,50.05
2016-04-20T15:41:44.063Z,50.05
2016-04-20T15:42:43.847Z,50.34
2016-04-20T15:43:44.053Z,49.93
2016-04-20T15:44:43.837Z,50.05
2016-04-20T15:45:43.636Z,50.05
2016-04-20T15:46:44.030Z,50.15
2016-04-20T15:47:43.830Z,50.05
2016-04-20T15:48:44.051Z,50.25
2016-04-20T15:49:43.616Z,50.05
2016-04-20T15:50:44.025Z,50.05
2016-04-20T15:51:43.996Z,49.87
2016-04-20T15:52:43.608Z,49.96
2016-04-20T15:53:44.018Z,49.96
2016-04-20T15:54:43.816Z,49.77
2016-04-20T15:55:43.804Z,49
2016-04-20T15:56:44.009Z,49.38
2016-04-20T15:57:43.793Z,49.77
2016-04-20T15:58:44.036Z,49.77
2016-04-20T15:59:43.893Z,49.87
2016-04-20T16:00:43.938Z,49.96
2016-04-20T16:01:43.951Z,49.87
2016-04-20T16:02:44.026Z,49.87
2016-04-20T16:03:44.020Z,49.87
2016-04-20T16:04:44.227Z,49.87
2016-04-20T16:06:59.723Z,49.29
2016-04-20T16:07:59.722Z,49.57
2016-04-20T16:08:59.949Z,49.29
2016-04-20T16:09:59.942Z,49.57
2016-04-20T16:10:59.746Z,49.77
2016-04-20T16:11:59.927Z,49.77
2016-04-20T16:12:59.933Z,50.05
2016-04-20T16:14:00.141Z,49.96
2016-04-20T16:14:59.927Z,50.15
2016-04-20T16:16:00.135Z,50.05
2016-04-20T16:16:59.935Z,49.96
2016-04-20T16:17:59.940Z,50.15
2016-04-20T16:19:00.132Z,50.15
2016-04-20T16:19:59.932Z,50.05
2016-04-20T16:20:59.936Z,49.96
2016-04-20T16:21:59.923Z,49.77
2016-04-20T16:22:59.927Z,49.96
2016-04-20T16:23:59.913Z,50.05
2016-04-20T16:25:00.135Z,49.96
2016-04-20T16:26:00.123Z,50.34
2016-04-20T16:26:59.735Z,50.34
2016-04-20T16:27:59.910Z,50.15
2016-04-20T16:28:59.913Z,50.05
2016-04-20T16:29:59.916Z,49.67
2016-04-20T16:30:59.700Z,49.87
2016-04-20T16:32:00.108Z,50.05
2016-04-20T16:32:59.705Z,50.25
2016-04-20T16:34:00.098Z,50.25
2016-04-20T16:35:00.101Z,50.05
2016-04-20T16:36:00.104Z,50.05
2016-04-20T16:36:59.887Z,50.08
2016-04-20T16:37:59.906Z,50.46
2016-04-20T16:39:00.096Z,50.27
2016-04-20T16:40:00.083Z,50.25
2016-04-20T16:41:00.085Z,50.34
2016-04-20T16:41:59.870Z,50.15
2016-04-20T16:42:59.873Z,50.27
2016-04-20T16:43:59.875Z,50.25
2016-04-20T16:44:59.878Z,50.15
2016-04-20T16:45:59.662Z,49.96
2016-04-20T16:47:00.086Z,50.37
2016-04-20T16:47:59.667Z,50.18
2016-04-20T16:48:59.670Z,50.18
2016-04-20T16:50:00.064Z,50.18
2016-04-20T16:51:00.051Z,49.89
2016-04-20T16:52:00.053Z,49.89
2016-04-20T16:52:59.853Z,49.89
2016-04-20T16:54:00.058Z,50.08
2016-04-20T16:54:59.842Z,49.87
2016-04-20T16:55:59.689Z,50.25
2016-04-20T16:57:00.035Z,49.99
2016-04-20T16:57:59.835Z,49.89
2016-04-20T16:59:00.041Z,49.89
2016-04-20T16:59:59.825Z,50.08
2016-04-20T17:00:59.639Z,50.18
2016-04-20T17:02:00.033Z,50.08
2016-04-20T17:03:00.035Z,50.08
2016-04-20T17:03:59.819Z,50.37
2016-04-20T17:04:59.635Z,50.37
2016-04-20T17:06:00.028Z,50.37
2016-04-20T17:06:59.827Z,50.27
2016-04-20T17:08:00.018Z,50.27
2016-04-20T17:08:59.818Z,50.18
2016-04-20T17:10:00.038Z,50.18
2016-04-20T17:11:00.010Z,50.37
2016-04-20T17:11:59.607Z,50.18
2016-04-20T17:12:59.594Z,50.27
2016-04-20T17:14:00.003Z,50.27
2016-04-20T17:15:00.006Z,50.27
2016-04-20T17:15:59.587Z,50.46
2016-04-20T17:17:00.012Z,50.18
2016-04-20T17:17:59.873Z,50.27
2016-04-20T17:19:00.016Z,50.27
2016-04-20T17:19:59.987Z,50.18
2016-04-20T17:20:59.990Z,50.18
2016-04-20T17:21:59.775Z,50.37
2016-04-20T17:22:59.778Z,49.99
2016-04-20T17:23:59.780Z,50.18
2016-04-20T17:24:59.970Z,50.18
2016-04-20T17:25:59.770Z,50.27
2016-04-20T17:26:59.772Z,50.08
2016-04-20T17:27:59.774Z,50.18
2016-04-20T17:28:59.964Z,50.08
2016-04-20T17:29:59.968Z,50.08
2016-04-20T17:30:59.752Z,50.27
2016-04-20T17:31:59.754Z,50.37
2016-04-20T17:32:59.758Z,50.18
2016-04-20T17:33:59.760Z,50.27
2016-04-20T17:34:59.544Z,50.27
2016-04-20T17:35:59.750Z,50.27
2016-04-20T17:36:59.768Z,50.27
2016-04-20T17:37:59.943Z,50.27
2016-04-20T17:38:59.538Z,50.27
2016-04-20T17:39:59.948Z,50.37
2016-04-20T17:40:59.732Z,50.27
2016-04-20T17:41:59.735Z,50.46
2016-04-20T17:42:59.535Z,50.27
2016-04-20T17:43:59.521Z,50.37
2016-04-20T17:44:59.743Z,50.18
2016-04-20T17:45:59.543Z,50.37
2016-04-20T17:46:59.920Z,50.34
2016-04-20T17:47:59.720Z,50.56
2016-04-20T17:48:59.925Z,50.46
2016-04-20T17:49:59.522Z,50.46
2016-04-20T17:50:59.931Z,50.34
2016-04-20T17:51:59.559Z,50.46
2016-04-20T17:52:59.717Z,50.25
2016-04-20T17:54:04.195Z,50.56
2016-04-20T17:54:59.901Z,50.44
2016-04-20T17:55:59.903Z,50.46
2016-04-20T17:56:59.890Z,50.27
2016-04-20T17:57:59.893Z,50.54
2016-04-20T17:58:59.895Z,50.54
2016-04-20T17:59:59.695Z,50.54
2016-04-20T18:00:59.478Z,50.44
2016-04-20T18:01:59.481Z,50.25
2016-04-20T18:02:59.687Z,50.44
2016-04-20T18:03:59.674Z,50.44
2016-04-20T18:04:59.678Z,50.44
2016-04-20T18:05:59.867Z,50.34
2016-04-20T18:06:59.681Z,50.44
2016-04-20T18:07:59.652Z,50.25
2016-04-20T18:08:59.656Z,50.25
2016-04-20T18:09:59.454Z,50.44
2016-04-20T18:10:59.863Z,50.34
2016-04-20T18:11:59.648Z,50.44
2016-04-20T18:12:59.650Z,50.63
2016-04-20T18:13:59.652Z,50.44
2016-04-20T18:14:59.858Z,50.44
2016-04-20T18:15:59.642Z,50.44
2016-04-20T18:16:59.458Z,50.44
2016-04-20T18:17:59.637Z,50.34
2016-04-20T18:18:59.842Z,50.44
2016-04-20T18:19:59.641Z,50.44
2016-04-20T18:20:59.629Z,50.34
2016-04-20T18:21:59.651Z,50.63
2016-04-20T18:22:59.826Z,50.54
2016-04-20T18:23:59.407Z,50.63
2016-04-20T18:24:59.831Z,50.63
2016-04-20T18:25:59.818Z,50.34
2016-04-20T18:26:59.822Z,50.44
2016-04-20T18:27:59.621Z,50.44
2016-04-20T18:28:59.811Z,50.44
2016-04-20T18:29:59.408Z,50.63
2016-04-20T18:30:59.597Z,50.63
2016-04-20T18:31:59.803Z,50.63
2016-04-20T18:32:59.603Z,50.73
2016-04-20T18:33:59.590Z,50.63
2016-04-20T18:34:59.593Z,50.44
2016-04-20T18:35:59.627Z,50.82
2016-04-20T18:36:59.599Z,50.73
2016-04-20T18:37:59.585Z,50.34
2016-04-20T18:38:59.385Z,50.63
2016-04-20T18:39:59.779Z,50.63
2016-04-20T18:40:59.375Z,50.73
2016-04-20T18:41:59.799Z,50.44
2016-04-20T18:42:59.583Z,50.44
2016-04-20T18:43:59.367Z,50.34
2016-04-20T18:44:59.776Z,50.44
2016-04-20T18:45:59.559Z,50.63
2016-04-20T18:46:59.407Z,50.25
2016-04-20T18:47:59.565Z,50.44
2016-04-20T18:48:59.771Z,50.44
2016-04-20T18:49:59.555Z,50.44
2016-04-20T18:50:59.354Z,50.44
2016-04-20T18:51:59.747Z,50.42
2016-04-20T18:52:59.751Z,50.34
2016-04-20T18:53:59.534Z,50.44
2016-04-20T18:54:59.537Z,50.32
2016-04-20T18:55:59.337Z,50.42
2016-04-20T18:56:59.542Z,50.44
2016-04-20T18:57:59.733Z,50.54
2016-04-20T18:58:59.736Z,50.42
2016-04-20T18:59:59.316Z,50.44
2016-04-20T19:00:59.523Z,50.51
2016-04-20T19:01:59.525Z,50.32
2016-04-20T19:02:59.715Z,50.42
2016-04-20T19:03:59.718Z,50.42
2016-04-20T19:04:59.517Z,50.32
2016-04-20T19:05:59.724Z,50.51
2016-04-20T19:06:59.148Z,50.42
2016-04-20T19:07:59.290Z,50.32
2016-04-20T19:08:59.496Z,50.42
2016-04-20T19:09:59.499Z,50.42
2016-04-20T19:10:59.283Z,50.42
2016-04-20T19:11:59.692Z,50.32
2016-04-20T19:12:59.493Z,50.42
2016-04-20T19:13:59.682Z,50.51
2016-04-20T19:14:59.685Z,50.42
2016-04-20T19:15:59.688Z,50.61
2016-04-20T19:16:59.674Z,50.23
2016-04-20T19:17:59.473Z,50.42
2016-04-20T19:18:59.664Z,50.42
2016-04-20T19:19:59.464Z,50.42
2016-04-20T19:20:59.467Z,50.51
2016-04-20T19:21:59.657Z,50.42
2016-04-20T19:22:59.269Z,50.61
2016-04-20T19:23:59.459Z,50.42
2016-04-20T19:24:59.649Z,50.42
2016-04-20T19:25:59.448Z,50.42
2016-04-20T19:26:59.436Z,50.7
2016-04-20T19:27:59.439Z,50.42
2016-04-20T19:28:59.441Z,50.51
2016-04-20T19:29:59.459Z,50.32
2016-04-20T19:30:59.228Z,50.51
2016-04-20T19:31:59.433Z,50.32
2016-04-20T19:32:59.625Z,50.23
2016-04-20T19:33:59.627Z,50.32
2016-04-20T19:34:59.629Z,50.42
2016-04-20T19:35:59.616Z,50.32
2016-04-20T19:36:59.416Z,50.42
2016-04-20T19:37:59.652Z,50.32
2016-04-20T19:38:59.406Z,50.9
2016-04-20T19:39:59.408Z,50.51
2016-04-20T19:40:59.599Z,50.42
2016-04-20T19:41:59.196Z,50.87
2016-04-20T19:42:59.604Z,50.78
2016-04-20T19:43:59.388Z,50.78
2016-04-20T19:44:59.593Z,50.78
2016-04-20T19:45:59.174Z,50.68
2016-04-20T19:46:59.396Z,50.58
2016-04-20T19:47:59.368Z,50.96
2016-04-20T19:48:59.370Z,50.78
2016-04-20T19:49:59.373Z,50.78
2016-04-20T19:50:59.376Z,50.68
2016-04-20T19:51:59.378Z,50.87
2016-04-20T19:52:59.568Z,50.78
2016-04-20T19:53:59.180Z,50.58
2016-04-20T19:54:59.151Z,51.06
2016-04-20T19:55:59.545Z,50.58
2016-04-20T19:56:59.548Z,50.87
2016-04-20T19:57:59.144Z,50.58
2016-04-20T19:58:59.350Z,50.78
2016-04-20T19:59:59.540Z,50.78
2016-04-20T20:00:59.340Z,50.49
2016-04-20T20:01:59.342Z,50.68
2016-04-20T20:02:59.330Z,50.78
2016-04-20T20:03:59.332Z,51.06
2016-04-20T20:04:59.523Z,50.87
2016-04-20T20:05:59.338Z,50.58
2016-04-20T20:06:59.309Z,50.78
2016-04-20T20:07:59.311Z,50.68
2016-04-20T20:08:59.096Z,50.68
2016-04-20T20:09:59.301Z,50.58
2016-04-20T20:10:59.679Z,50.78
2016-04-20T20:11:59.511Z,50.78
2016-04-20T20:12:59.090Z,50.58
2016-04-20T20:13:59.281Z,50.68
2016-04-20T20:14:59.487Z,50.96
2016-04-20T20:15:59.287Z,51.06
2016-04-20T20:16:59.305Z,50.78
2016-04-20T20:17:59.073Z,50.68
2016-04-20T20:18:59.482Z,50.78
2016-04-20T20:19:59.282Z,50.68
2016-04-20T20:20:59.471Z,50.87
2016-04-20T20:21:59.062Z,50.87
2016-04-20T20:22:59.464Z,50.78
2016-04-20T20:23:59.451Z,50.84
2016-04-20T20:24:59.453Z,50.58
2016-04-20T20:25:59.253Z,50.56
2016-04-20T20:26:59.255Z,50.84
2016-04-20T20:27:59.447Z,50.78
2016-04-20T20:28:59.089Z,50.75
2016-04-20T20:29:59.435Z,50.56
2016-04-20T20:30:59.439Z,50.78
2016-04-20T20:31:59.066Z,50.58
2016-04-20T20:32:59.225Z,50.65
2016-04-20T20:33:59.430Z,50.65
2016-04-20T20:34:59.433Z,50.87
2016-04-20T20:35:59.014Z,50.56
2016-04-20T20:36:59.016Z,50.56
2016-04-20T20:37:59.208Z,50.56
2016-04-20T20:38:59.210Z,50.84
2016-04-20T20:39:59.196Z,50.84
2016-04-20T20:40:59.402Z,50.56
2016-04-20T20:41:58.984Z,50.37
2016-04-20T20:42:59.392Z,50.65
2016-04-20T20:43:59.035Z,50.75
2016-04-20T20:44:59.398Z,50.75
2016-04-20T20:45:59.384Z,50.65
2016-04-20T20:46:59.185Z,50.65
2016-04-20T20:47:58.968Z,50.75
2016-04-20T20:48:59.377Z,50.75
2016-04-20T20:49:59.162Z,50.56
2016-04-20T20:50:59.211Z,50.46
2016-04-20T20:51:59.150Z,50.46
2016-04-20T20:52:59.356Z,50.37
2016-04-20T20:53:59.360Z,50.56
2016-04-20T20:54:59.347Z,50.56
2016-04-20T20:55:59.350Z,50.46
2016-04-20T20:56:59.133Z,50.56
2016-04-20T20:57:59.339Z,50.56
2016-04-20T20:58:58.950Z,50.27
2016-04-20T21:00:00.048Z,50.27
2016-04-20T21:00:59.144Z,50.27
2016-04-20T21:01:59.132Z,50.17
2016-04-20T21:02:59.322Z,50.46
2016-04-20T21:03:59.326Z,50.46
2016-04-20T21:04:58.906Z,50.46
2016-04-20T21:05:59.112Z,50.37
2016-04-20T21:06:59.317Z,50.37
2016-04-20T21:07:59.304Z,50.37
2016-04-20T21:08:59.306Z,50.37
2016-04-20T21:09:59.294Z,50.17
2016-04-20T21:10:59.095Z,50.56
2016-04-20T21:11:59.314Z,50.75
2016-04-20T21:12:59.286Z,50.37
2016-04-20T21:13:59.086Z,50.27
2016-04-20T21:14:59.073Z,50.65
2016-04-20T21:15:59.280Z,50.27
2016-04-20T21:16:59.266Z,50.17
2016-04-20T21:17:59.081Z,50.65
2016-04-20T21:18:58.866Z,50.56
2016-04-20T21:19:59.258Z,50.46
2016-04-20T21:20:59.058Z,50.65
2016-04-20T21:21:59.060Z,50.65